In Rescue
 
Open Full Screen Window  High Contrast Mode
July 13, 2020 10:22 PM EDT
Weather Information
Wind Direction
  ---
Wind Speed
  00 kt (0 mph)
Wind Gust
  00 kt (0 mph)
Altimeter
29.99 in
Visibility
10 SM
Temperature
18° C
64° F
Dewpoint
17° C
63° F
Humidity
94%
1hr Rain Fall
00.00 in.
24hr Rain Fall
00.00 in.
Sky Condition
Clear
VFR

METAR KTTF 140222Z AUTO 00000KT 10SM CLR 18/17 A2999 RMK AO2 T01840169

FAA Disclaimer: The data displayed is for advisory purposes only and is not to be used for flight planning or operations.